<?xml version="1.0" encoding="UTF-8" standalone="no" ?>
<gpx xmlns="http://www.topografix.com/GPX/1/1" xmlns:xsi="http://www.w3.org/2001/XMLSchema-instance" xsi:schemaLocation="http://www.topografix.com/GPX/1/1 http://www.topografix.com/GPX/1/1/gpx.xsd" version="1.1" creator="VisuGPX - https://www.visugpx.com">
  <metadata>
    <name>LaMontagne_BourgCoteauxRocheBalue_5-10km</name>
    <desc><![CDATA[gnerando idor:7892356_7892816-7892347_7893056]]></desc>
  </metadata>
  <trk>
    <name><![CDATA[LaMontagne_CoteauxRocheBallue_10km-7892347]]></name>
    <extensions>
      <line xmlns="http://www.topografix.com/GPX/gpx_style/0/2">
        <color>00FFFF</color>
        <width>4</width>
      </line>
    </extensions>
    <trkseg>
      <trkpt lat="47.17691" lon="-1.677">
        <ele>34</ele>
        <time>2023-11-04T12:24:55Z</time>
      </trkpt>
      <trkpt lat="47.17628" lon="-1.67432">
        <ele>36</ele>
        <time>2023-11-04T12:29:12Z</time>
      </trkpt>
      <trkpt lat="47.17674" lon="-1.6739">
        <ele>35</ele>
        <time>2023-11-04T12:30:24Z</time>
      </trkpt>
      <trkpt lat="47.17802" lon="-1.67201">
        <ele>34</ele>
        <time>2023-11-04T12:34:26Z</time>
      </trkpt>
      <trkpt lat="47.17615" lon="-1.66886">
        <ele>34</ele>
        <time>2023-11-04T12:40:46Z</time>
      </trkpt>
      <trkpt lat="47.17822" lon="-1.66719">
        <ele>36</ele>
        <time>2023-11-04T12:46:01Z</time>
      </trkpt>
      <trkpt lat="47.17772" lon="-1.66588">
        <ele>35</ele>
        <time>2023-11-04T12:48:17Z</time>
      </trkpt>
      <trkpt lat="47.1772" lon="-1.66378">
        <ele>36</ele>
        <time>2023-11-04T12:51:40Z</time>
      </trkpt>
      <trkpt lat="47.17676" lon="-1.6616">
        <ele>33</ele>
        <time>2023-11-04T12:55:06Z</time>
      </trkpt>
      <trkpt lat="47.17669" lon="-1.66056">
        <ele>32</ele>
        <time>2023-11-04T12:56:41Z</time>
      </trkpt>
      <trkpt lat="47.17912" lon="-1.6584">
        <ele>39</ele>
        <time>2023-11-04T13:03:00Z</time>
      </trkpt>
      <trkpt lat="47.18007" lon="-1.65748">
        <ele>40</ele>
        <time>2023-11-04T13:05:32Z</time>
      </trkpt>
      <trkpt lat="47.18174" lon="-1.65538">
        <ele>33</ele>
        <time>2023-11-04T13:10:25Z</time>
      </trkpt>
      <trkpt lat="47.18127" lon="-1.65491">
        <ele>33</ele>
        <time>2023-11-04T13:11:41Z</time>
      </trkpt>
      <trkpt lat="47.18107" lon="-1.65422">
        <ele>31</ele>
        <time>2023-11-04T13:12:49Z</time>
      </trkpt>
      <trkpt lat="47.18078" lon="-1.65329">
        <ele>31</ele>
        <time>2023-11-04T13:14:21Z</time>
      </trkpt>
      <trkpt lat="47.18142" lon="-1.65278">
        <ele>30</ele>
        <time>2023-11-04T13:15:59Z</time>
      </trkpt>
      <trkpt lat="47.18169" lon="-1.65201">
        <ele>26</ele>
        <time>2023-11-04T13:17:17Z</time>
      </trkpt>
      <trkpt lat="47.18172" lon="-1.65118">
        <ele>22</ele>
        <time>2023-11-04T13:18:33Z</time>
      </trkpt>
      <trkpt lat="47.18244" lon="-1.65059">
        <ele>16</ele>
        <time>2023-11-04T13:20:23Z</time>
      </trkpt>
      <trkpt lat="47.1835" lon="-1.65047">
        <ele>13</ele>
        <time>2023-11-04T13:22:44Z</time>
      </trkpt>
      <trkpt lat="47.18406" lon="-1.65095">
        <ele>9</ele>
        <time>2023-11-04T13:24:11Z</time>
      </trkpt>
      <trkpt lat="47.18433" lon="-1.65161">
        <ele>7</ele>
        <time>2023-11-04T13:25:21Z</time>
      </trkpt>
      <trkpt lat="47.18448" lon="-1.65261">
        <ele>6</ele>
        <time>2023-11-04T13:26:54Z</time>
      </trkpt>
      <trkpt lat="47.18457" lon="-1.65341">
        <ele>7</ele>
        <time>2023-11-04T13:28:07Z</time>
      </trkpt>
      <trkpt lat="47.18465" lon="-1.65401">
        <ele>7</ele>
        <time>2023-11-04T13:29:03Z</time>
      </trkpt>
      <trkpt lat="47.18442" lon="-1.65459">
        <ele>11</ele>
        <time>2023-11-04T13:30:04Z</time>
      </trkpt>
      <trkpt lat="47.18499" lon="-1.65523">
        <ele>12</ele>
        <time>2023-11-04T13:31:39Z</time>
      </trkpt>
      <trkpt lat="47.18534" lon="-1.65617">
        <ele>17</ele>
        <time>2023-11-04T13:33:16Z</time>
      </trkpt>
      <trkpt lat="47.18611" lon="-1.65734">
        <ele>14</ele>
        <time>2023-11-04T13:35:44Z</time>
      </trkpt>
      <trkpt lat="47.18661" lon="-1.65845">
        <ele>15</ele>
        <time>2023-11-04T13:37:45Z</time>
      </trkpt>
      <trkpt lat="47.18749" lon="-1.66026">
        <ele>15</ele>
        <time>2023-11-04T13:41:07Z</time>
      </trkpt>
      <trkpt lat="47.18782" lon="-1.66112">
        <ele>13</ele>
        <time>2023-11-04T13:42:36Z</time>
      </trkpt>
      <trkpt lat="47.18779" lon="-1.66179">
        <ele>14</ele>
        <time>2023-11-04T13:43:37Z</time>
      </trkpt>
      <trkpt lat="47.1879" lon="-1.66346">
        <ele>9</ele>
        <time>2023-11-04T13:46:09Z</time>
      </trkpt>
      <trkpt lat="47.18744" lon="-1.6649">
        <ele>9</ele>
        <time>2023-11-04T13:48:34Z</time>
      </trkpt>
      <trkpt lat="47.18774" lon="-1.66525">
        <ele>7</ele>
        <time>2023-11-04T13:49:25Z</time>
      </trkpt>
      <trkpt lat="47.18806" lon="-1.66779">
        <ele>8</ele>
        <time>2023-11-04T13:53:19Z</time>
      </trkpt>
      <trkpt lat="47.18823" lon="-1.66833">
        <ele>7</ele>
        <time>2023-11-04T13:54:13Z</time>
      </trkpt>
      <trkpt lat="47.18846" lon="-1.66965">
        <ele>13</ele>
        <time>2023-11-04T13:56:17Z</time>
      </trkpt>
      <trkpt lat="47.18868" lon="-1.67066">
        <ele>14</ele>
        <time>2023-11-04T13:57:53Z</time>
      </trkpt>
      <trkpt lat="47.18876" lon="-1.67219">
        <ele>20</ele>
        <time>2023-11-04T14:00:12Z</time>
      </trkpt>
      <trkpt lat="47.18846" lon="-1.67259">
        <ele>28</ele>
        <time>2023-11-04T14:01:06Z</time>
      </trkpt>
      <trkpt lat="47.18862" lon="-1.67304">
        <ele>27</ele>
        <time>2023-11-04T14:01:52Z</time>
      </trkpt>
      <trkpt lat="47.18887" lon="-1.67408">
        <ele>28</ele>
        <time>2023-11-04T14:03:32Z</time>
      </trkpt>
      <trkpt lat="47.18919" lon="-1.67449">
        <ele>26</ele>
        <time>2023-11-04T14:04:29Z</time>
      </trkpt>
      <trkpt lat="47.18914" lon="-1.67484">
        <ele>28</ele>
        <time>2023-11-04T14:05:01Z</time>
      </trkpt>
      <trkpt lat="47.18916" lon="-1.67541">
        <ele>30</ele>
        <time>2023-11-04T14:05:53Z</time>
      </trkpt>
      <trkpt lat="47.18934" lon="-1.67566">
        <ele>25</ele>
        <time>2023-11-04T14:06:26Z</time>
      </trkpt>
      <trkpt lat="47.18936" lon="-1.67587">
        <ele>25</ele>
        <time>2023-11-04T14:06:45Z</time>
      </trkpt>
      <trkpt lat="47.18924" lon="-1.67616">
        <ele>29</ele>
        <time>2023-11-04T14:07:16Z</time>
      </trkpt>
      <trkpt lat="47.1892" lon="-1.6766">
        <ele>31</ele>
        <time>2023-11-04T14:07:56Z</time>
      </trkpt>
      <trkpt lat="47.18934" lon="-1.67699">
        <ele>27</ele>
        <time>2023-11-04T14:08:36Z</time>
      </trkpt>
      <trkpt lat="47.18906" lon="-1.6773">
        <ele>32</ele>
        <time>2023-11-04T14:09:23Z</time>
      </trkpt>
      <trkpt lat="47.18918" lon="-1.6783">
        <ele>29</ele>
        <time>2023-11-04T14:10:55Z</time>
      </trkpt>
      <trkpt lat="47.18918" lon="-1.67888">
        <ele>31</ele>
        <time>2023-11-04T14:11:48Z</time>
      </trkpt>
      <trkpt lat="47.1895" lon="-1.67878">
        <ele>26</ele>
        <time>2023-11-04T14:12:31Z</time>
      </trkpt>
      <trkpt lat="47.18972" lon="-1.67894">
        <ele>25</ele>
        <time>2023-11-04T14:13:04Z</time>
      </trkpt>
      <trkpt lat="47.18988" lon="-1.67943">
        <ele>27</ele>
        <time>2023-11-04T14:13:53Z</time>
      </trkpt>
      <trkpt lat="47.18979" lon="-1.67969">
        <ele>30</ele>
        <time>2023-11-04T14:14:20Z</time>
      </trkpt>
      <trkpt lat="47.18999" lon="-1.68026">
        <ele>32</ele>
        <time>2023-11-04T14:15:18Z</time>
      </trkpt>
      <trkpt lat="47.19057" lon="-1.68026">
        <ele>24</ele>
        <time>2023-11-04T14:16:35Z</time>
      </trkpt>
      <trkpt lat="47.19079" lon="-1.68039">
        <ele>23</ele>
        <time>2023-11-04T14:17:07Z</time>
      </trkpt>
      <trkpt lat="47.19104" lon="-1.68096">
        <ele>25</ele>
        <time>2023-11-04T14:18:09Z</time>
      </trkpt>
      <trkpt lat="47.19117" lon="-1.68148">
        <ele>25</ele>
        <time>2023-11-04T14:18:59Z</time>
      </trkpt>
      <trkpt lat="47.19123" lon="-1.68198">
        <ele>26</ele>
        <time>2023-11-04T14:19:45Z</time>
      </trkpt>
      <trkpt lat="47.19141" lon="-1.68186">
        <ele>21</ele>
        <time>2023-11-04T14:20:11Z</time>
      </trkpt>
      <trkpt lat="47.19155" lon="-1.68208">
        <ele>20</ele>
        <time>2023-11-04T14:20:39Z</time>
      </trkpt>
      <trkpt lat="47.19183" lon="-1.68241">
        <ele>17</ele>
        <time>2023-11-04T14:21:26Z</time>
      </trkpt>
      <trkpt lat="47.19197" lon="-1.68294">
        <ele>17</ele>
        <time>2023-11-04T14:22:18Z</time>
      </trkpt>
      <trkpt lat="47.19198" lon="-1.6839">
        <ele>21</ele>
        <time>2023-11-04T14:23:45Z</time>
      </trkpt>
      <trkpt lat="47.19206" lon="-1.68507">
        <ele>23</ele>
        <time>2023-11-04T14:25:32Z</time>
      </trkpt>
      <trkpt lat="47.19232" lon="-1.68543">
        <ele>21</ele>
        <time>2023-11-04T14:26:19Z</time>
      </trkpt>
      <trkpt lat="47.19242" lon="-1.6868">
        <ele>26</ele>
        <time>2023-11-04T14:28:24Z</time>
      </trkpt>
      <trkpt lat="47.19224" lon="-1.68735">
        <ele>29</ele>
        <time>2023-11-04T14:29:20Z</time>
      </trkpt>
      <trkpt lat="47.19244" lon="-1.68819">
        <ele>30</ele>
        <time>2023-11-04T14:30:40Z</time>
      </trkpt>
      <trkpt lat="47.1929" lon="-1.68936">
        <ele>29</ele>
        <time>2023-11-04T14:32:43Z</time>
      </trkpt>
      <trkpt lat="47.19339" lon="-1.69019">
        <ele>26</ele>
        <time>2023-11-04T14:34:23Z</time>
      </trkpt>
      <trkpt lat="47.19246" lon="-1.69088">
        <ele>31</ele>
        <time>2023-11-04T14:36:42Z</time>
      </trkpt>
      <trkpt lat="47.19108" lon="-1.69214">
        <ele>29</ele>
        <time>2023-11-04T14:40:18Z</time>
      </trkpt>
      <trkpt lat="47.18999" lon="-1.69265">
        <ele>26</ele>
        <time>2023-11-04T14:42:51Z</time>
      </trkpt>
      <trkpt lat="47.18985" lon="-1.69228">
        <ele>26</ele>
        <time>2023-11-04T14:43:29Z</time>
      </trkpt>
      <trkpt lat="47.18901" lon="-1.6927">
        <ele>22</ele>
        <time>2023-11-04T14:45:28Z</time>
      </trkpt>
      <trkpt lat="47.18823" lon="-1.69321">
        <ele>21</ele>
        <time>2023-11-04T14:47:22Z</time>
      </trkpt>
      <trkpt lat="47.1876" lon="-1.69365">
        <ele>23</ele>
        <time>2023-11-04T14:48:55Z</time>
      </trkpt>
      <trkpt lat="47.18722" lon="-1.69407">
        <ele>24</ele>
        <time>2023-11-04T14:49:58Z</time>
      </trkpt>
      <trkpt lat="47.18675" lon="-1.69441">
        <ele>25</ele>
        <time>2023-11-04T14:51:08Z</time>
      </trkpt>
      <trkpt lat="47.18688" lon="-1.69502">
        <ele>27</ele>
        <time>2023-11-04T14:52:06Z</time>
      </trkpt>
      <trkpt lat="47.18633" lon="-1.69567">
        <ele>26</ele>
        <time>2023-11-04T14:53:40Z</time>
      </trkpt>
      <trkpt lat="47.18594" lon="-1.69608">
        <ele>27</ele>
        <time>2023-11-04T14:54:44Z</time>
      </trkpt>
      <trkpt lat="47.18555" lon="-1.69574">
        <ele>27</ele>
        <time>2023-11-04T14:55:45Z</time>
      </trkpt>
      <trkpt lat="47.18493" lon="-1.69465">
        <ele>29</ele>
        <time>2023-11-04T14:57:53Z</time>
      </trkpt>
      <trkpt lat="47.18403" lon="-1.69312">
        <ele>30</ele>
        <time>2023-11-04T15:00:57Z</time>
      </trkpt>
      <trkpt lat="47.18355" lon="-1.69288">
        <ele>30</ele>
        <time>2023-11-04T15:02:05Z</time>
      </trkpt>
      <trkpt lat="47.1832" lon="-1.6928">
        <ele>30</ele>
        <time>2023-11-04T15:02:52Z</time>
      </trkpt>
      <trkpt lat="47.18292" lon="-1.69266">
        <ele>30</ele>
        <time>2023-11-04T15:03:31Z</time>
      </trkpt>
      <trkpt lat="47.18239" lon="-1.69214">
        <ele>31</ele>
        <time>2023-11-04T15:04:56Z</time>
      </trkpt>
      <trkpt lat="47.18135" lon="-1.69078">
        <ele>29</ele>
        <time>2023-11-04T15:08:02Z</time>
      </trkpt>
      <trkpt lat="47.18126" lon="-1.68999">
        <ele>26</ele>
        <time>2023-11-04T15:09:15Z</time>
      </trkpt>
      <trkpt lat="47.18085" lon="-1.68837">
        <ele>27</ele>
        <time>2023-11-04T15:11:52Z</time>
      </trkpt>
      <trkpt lat="47.18028" lon="-1.68713">
        <ele>28</ele>
        <time>2023-11-04T15:14:07Z</time>
      </trkpt>
      <trkpt lat="47.17957" lon="-1.6855">
        <ele>31</ele>
        <time>2023-11-04T15:17:03Z</time>
      </trkpt>
      <trkpt lat="47.17892" lon="-1.68429">
        <ele>33</ele>
        <time>2023-11-04T15:19:23Z</time>
      </trkpt>
      <trkpt lat="47.17854" lon="-1.68343">
        <ele>35</ele>
        <time>2023-11-04T15:20:56Z</time>
      </trkpt>
      <trkpt lat="47.17742" lon="-1.68312">
        <ele>34</ele>
        <time>2023-11-04T15:23:28Z</time>
      </trkpt>
      <trkpt lat="47.17748" lon="-1.68234">
        <ele>35</ele>
        <time>2023-11-04T15:24:39Z</time>
      </trkpt>
      <trkpt lat="47.17793" lon="-1.68121">
        <ele>35</ele>
        <time>2023-11-04T15:26:38Z</time>
      </trkpt>
      <trkpt lat="47.17762" lon="-1.68111">
        <ele>35</ele>
        <time>2023-11-04T15:27:20Z</time>
      </trkpt>
      <trkpt lat="47.17728" lon="-1.68075">
        <ele>34</ele>
        <time>2023-11-04T15:28:16Z</time>
      </trkpt>
      <trkpt lat="47.17652" lon="-1.67972">
        <ele>33</ele>
        <time>2023-11-04T15:30:34Z</time>
      </trkpt>
      <trkpt lat="47.17661" lon="-1.67924">
        <ele>34</ele>
        <time>2023-11-04T15:31:19Z</time>
      </trkpt>
      <trkpt lat="47.17668" lon="-1.67879">
        <ele>34</ele>
        <time>2023-11-04T15:32:01Z</time>
      </trkpt>
      <trkpt lat="47.17652" lon="-1.67822">
        <ele>34</ele>
        <time>2023-11-04T15:32:57Z</time>
      </trkpt>
      <trkpt lat="47.1761" lon="-1.6777">
        <ele>33</ele>
        <time>2023-11-04T15:34:10Z</time>
      </trkpt>
      <trkpt lat="47.17679" lon="-1.67707">
        <ele>34</ele>
        <time>2023-11-04T15:35:59Z</time>
      </trkpt>
    </trkseg>
  </trk>
</gpx>